Round Spring, Missouri
Current Conditions -  °F | °C
As of 11:53 AM on Sunday 23 Nov 2014 (Local Time) from KUNO Reporting Station
Light Rain Light Rain  
Wind Chill: 13°   Ceiling: 500
Heat Index: 13°   Visibility: 8mi
Dew Point: 12°   Wind: 8mph
Humidity: 93%   Direction: 150°SSE
Pressure: 29.48"   Gusts: NA
Location:  37.1833°N, 91.4819°W
Report Text: KUNO 231753Z AUTO 15007KT 8SM -RA OVC005 13/12 A2948 RMK AO2 CIG 004V009 SLP978 P0007 60063 T01280117 10128 20111 58049
Loading
Personal Weather Stations






























Interactive Weather Map New forecast layout! Learn more

10-Day Weather Forecast

Advertisements
Track Severe Weather on mobile